Aviation Digital Data Service (ADDS)

Output produced by METARs form (1451 UTC 24 August 2019)
found at http://www.aviationweather.gov/metar/data/
 
Forecast for: EDDW (BREMEN , DE)
Text: TAF EDDW 241100Z 2412/2512 10010KT CAVOK
Forecast period: 1200 to 1700 UTC 24 August 2019
Forecast type: FROM: standard forecast or significant change
Winds: from the E (100 degrees) at 12 MPH (10 knots; 5.1 m/s)
Visibility: 6 or more miles 10+ km)
Ceiling: unknown
Clouds: missing
Weather: NSW  (no significant weather)
Text: BECMG 2417/2420 08005KT
Forecast period: 1700 UTC 24 August 2019 to 1200 UTC 25 August 2019
Forecast type: BECOMING: Conditions expected to become as follows by 2000 UTC 24 August 2019
Winds: from the E (80 degrees) at 6 MPH (5 knots; 2.6 m/s)
Visibility: 6 or more miles 10+ km)
Ceiling: unknown
Clouds: missing
Weather: NSW  (no significant weather)